Wyalusing, Pennsylvania
Current Conditions -  °F | °C
As of 10:54 AM on Thursday 30 Oct 2014 (Local Time) from KAVP Reporting Station
Overcast Overcast  
Wind Chill: 43°   Ceiling: 3500
Heat Index: 48°   Visibility: 10mi
Dew Point: 34°   Wind: 13mph
Humidity: 58%   Direction: 310°NW
Pressure: 30.03"   Gusts: NA
Location:  41.67°N, 76.26°W
Report Text: KAVP 301454Z 31011KT 10SM OVC035 09/01 A3003 RMK AO2 SLP170 T00890011 51009
Loading
Personal Weather Stations






























Interactive Weather Map New forecast layout! Learn more

10-Day Weather Forecast

Advertisements
Track Severe Weather on mobile